2018 MXGP Results : LA COMUNITAT VALENCIANA

MXGP

Pos Nr Rider Nat. Fed. Bike Time laps Diff. First Diff. Prev. Bestlaptime in lap Speed
1 222 Cairoli, Antonio ITA FMI KTM 34:23.638 18 0:00.000 0:00.000 1:47.618 16 57.8
2 84 Herlings, Jeffrey NED KNMV KTM 34:25.468 18 0:01.830 0:01.830 1:47.288 17 58
3 21 Paulin, Gautier FRA MCM Husqvarna 34:47.136 18 0:23.498 0:21.668 1:48.456 10 57.4
4 25 Desalle, Clement BEL FMB Kawasaki 34:52.250 18 0:28.612 0:05.114 1:49.546 5 56.8
5 461 Febvre, Romain FRA FFM Yamaha 34:53.609 18 0:29.971 0:01.359 1:49.548 13 56.8
6 243 Gajser, Tim SLO AMZS Honda 35:07.526 18 0:43.888 0:13.917 1:49.366 6 56.9
7 259 Coldenhoff, Glenn NED KNMV KTM 35:11.796 18 0:48.158 0:04.270 1:50.135 4 56.5
8 89 Van Horebeek, Jeremy BEL FMB Yamaha 35:13.684 18 0:50.046 0:01.888 1:50.249 13 56.4
9 33 Lieber, Julien BEL FMB Kawasaki 35:20.867 18 0:57.229 0:07.183 1:49.080 7 57
10 27 Jasikonis, Arminas LTU LMSF Honda 35:39.346 18 1:15.708 0:18.479 1:50.909 6 56.1
11 12 Nagl, Maximilian GER DMSB TM 35:42.033 18 1:18.395 0:02.687 1:51.813 6 55.7
12 141 Desprey, Maxime FRA FFM Kawasaki 35:43.014 18 1:19.376 0:00.981 1:51.736 7 55.7
13 22 Strijbos, Kevin BEL FMB KTM 35:44.044 18 1:20.406 0:01.030 1:51.863 11 55.6
14 24 Simpson, Shaun GBR ACU Yamaha 35:52.445 18 1:28.807 0:08.401 1:51.145 4 56
15 91 Seewer, Jeremy SUI FMS Yamaha 35:53.494 18 1:29.856 0:01.049 1:51.414 12 55.8
16 77 Lupino, Alessandro ITA FMI Kawasaki 35:56.264 18 1:32.626 0:02.770 1:52.261 12 55.4
17 7 Leok, Tanel EST EMF Husqvarna 35:57.105 18 1:33.467 0:00.841 1:52.094 12 55.5
18 151 Kullas, Harri EST EMF Husqvarna 36:04.534 18 1:40.896 0:07.429 1:52.347 6 55.4
19 777 Bobryshev, Evgeny RUS MFR Suzuki 36:16.942 18 1:53.304 0:12.408 1:52.145 2 55.5
20 152 Petrov, Petar BUL BMF Honda 36:17.913 18 1:54.275 0:00.971 1:52.076 3 55.5
21 128 Monticelli, Ivo ITA FMI Yamaha 34:38.058 17 1 lap 1 lap 1:52.990 5 55.1
22 94 Van der Mierden, Sven NED KNMV Yamaha 34:50.498 17 1 lap 0:12.440 1:54.268 13 54.5
23 920 Valentin, Ander ESP RFME Husqvarna 35:02.792 17 1 lap 0:12.294 1:54.031 6 54.6
24 55 Irwin, Graeme GBR MCUI KTM 35:04.192 17 1 lap 0:01.400 1:53.525 11 54.8
25 9 de Dycker, Ken BEL FMB KTM 35:24.249 17 1 lap 0:20.057 1:53.909 5 54.6
26 831 Wysocki, Tomasz POL PZM KTM 35:25.412 17 1 lap 0:01.163 1:56.099 3 53.6
27 85 Ekerold, Stefan GER DMSB KTM 35:30.521 17 1 lap 0:05.109 1:55.910 5 53.7
28 878 Pezzuto, Stefano ITA FMI Yamaha 35:36.572 17 1 lap 0:06.051 1:56.469 8 53.4
29 62 Gercar, Klemen SLO AMZS Husqvarna 36:13.689 17 1 lap 0:37.117 1:55.104 1 54.1
30 17 Butron, Jose ESP RFME KTM 30:12.682 15 3 laps 2 laps 1:52.317 3 55.4
31 31 Crnkovic, Luka CRO HMS Honda 26:09.580 12 6 laps 3 laps 1:58.499 6 52.5
32 15 Bonini, Davide ITA FMI KTM 13:35.087 6 12 laps 6 laps 1:55.405 3 53.9
33 120 Zecchina, Simone ITA FMI Yamaha 11:40.567 5 13 laps 1 lap 1:55.899 1 53.7
34 83 Renkens, Nathan BEL FMB Honda 12:14.894 5 13 laps 0:34.327 1:56.585 3 53.4

MX2

Pos Nr Rider Nat. Fed. Bike Time laps Diff. First Diff. Prev. Bestlaptime in lap Speed
1 1 Jonass, Pauls LAT LAMSF KTM 34:59.912 18 0:00.000 0:00.000 1:49.842 6 56.6
2 57 Sanayei, Darian USA ACU Kawasaki 35:07.687 18 0:07.775 0:07.775 1:48.751 10 57.2
3 61 Prado, Jorge ESP RFME KTM 35:12.051 18 0:12.139 0:04.364 1:50.147 6 56.5
4 19 Olsen, Thomas Kjer DEN DMU Husqvarna 35:12.468 18 0:12.556 0:00.417 1:49.809 6 56.7
5 96 Lawrence, Hunter AUS MA Honda 35:22.528 18 0:22.616 0:10.060 1:50.267 6 56.4
6 14 Beaton, Jed AUS MA Kawasaki 35:29.009 18 0:29.097 0:06.481 1:51.357 7 55.9
7 10 Vlaanderen, Calvin RSA KNMV Honda 35:30.241 18 0:30.329 0:01.232 1:51.527 11 55.8
8 919 Watson, Ben GBR ACU Yamaha 35:33.439 18 0:33.527 0:03.198 1:51.139 10 56
9 426 Mewse, Conrad GBR ACU KTM 35:41.507 18 0:41.595 0:08.068 1:50.970 11 56.1
10 18 Brylyakov, Vsevolod RUS MFR Yamaha 35:52.663 18 0:52.751 0:11.156 1:51.356 5 55.9
11 98 Vaessen, Bas NED KNMV Honda 35:57.225 18 0:57.313 0:04.562 1:52.170 4 55.5
12 70 Fernandez, Ruben ESP RFME Kawasaki 35:58.301 18 0:58.389 0:01.076 1:51.980 8 55.6
13 46 Pootjes, Davy NED KNMV KTM 36:07.451 18 1:07.539 0:09.150 1:51.261 8 55.9
14 811 Sterry, Adam GBR ACU Kawasaki 36:09.419 18 1:09.507 0:01.968 1:52.831 14 55.1
15 66 Larranaga Olano, Iker ESP RFME Husqvarna 36:09.987 18 1:10.075 0:00.568 1:51.998 7 55.6
16 321 Bernardini, Samuele ITA FMI TM 36:13.560 18 1:13.648 0:03.573 1:53.253 3 54.9
17 193 Geerts, Jago BEL FMB Yamaha 36:14.767 18 1:14.855 0:01.207 1:52.431 7 55.3
18 172 Van doninck, Brent BEL FMB Husqvarna 36:18.386 18 1:18.474 0:03.619 1:52.878 9 55.1
19 64 Covington, Thomas USA MUL Husqvarna 36:21.847 18 1:21.935 0:03.461 1:51.257 8 55.9
20 118 Rubini, Stephen FRA FFM KTM 36:27.116 18 1:27.204 0:05.269 1:53.370 8 54.9
21 161 Östlund, Alvin SWE SVEMO Yamaha 36:27.798 18 1:27.886 0:00.682 1:53.077 6 55
22 56 Weltin, Marshal USA AMA Honda 36:40.241 18 1:40.329 0:12.443 1:54.277 4 54.4
23 101 Pichon, Zachary FRA FFM KTM 36:50.803 18 1:50.891 0:10.562 1:55.182 2 54
24 199 Zaragoza, Jorge ESP RFME Yamaha 36:51.370 18 1:51.458 0:00.567 1:51.177 2 56
25 75 Roosiorg, Hardi EST EMF KTM 35:15.747 17 1 lap 1 lap 1:55.874 5 53.7
26 44 Lesiardo, Morgan ITA FMI KTM 35:21.571 17 1 lap 0:05.824 1:55.354 5 53.9
27 102 Sikyna, Richard SVK SMF KTM 35:34.542 17 1 lap 0:12.971 1:56.868 7 53.2
28 226 Koch, Tom GER DMSB KTM 35:35.559 17 1 lap 0:01.017 1:56.369 7 53.5
29 773 Do, Thomas FRA FFM KTM 36:01.617 17 1 lap 0:26.058 1:56.528 1 53.4
30 331 Freidig, Loris SUI FMS Husqvarna 36:11.362 17 1 lap 0:09.745 1:58.680 7 52.4
31 783 Toriani, Enzo FRA FFM Husqvarna 36:12.400 17 1 lap 0:01.038 1:58.660 2 52.4
32 338 Herbreteau, David FRA FFM KTM 29:23.011 14 4 laps 3 laps 1:55.524 3 53.9
33 26 Bertuzzi, Nicola ITA FMI KTM 18:07.006 8 10 laps 6 laps 1:56.970 5 53.2
34 29 Jacobi, Henry GER DMSB Husqvarna 22:12.662 4 14 laps 4 laps 1:53.558 3 54.8

EMX 250

EMX250 – Race 2 – Classification
Pos Nr Rider Nat. Fed. Bike Time laps Diff. First Diff. Prev. Bestlaptime in lap Speed
1 50 Barr, Martin GBR MCUI Husqvarna 29:08.367 14 0:00.000 0:00.000 1:55.524 6 53.9
2 720 Goupillon, Pierre FRA FFM Kawasaki 29:12.180 14 0:03.813 0:03.813 1:55.737 2 53.8
3 223 Tropepe, Giuseppe ITA FMI Yamaha 29:24.745 14 0:16.378 0:12.565 1:56.568 2 53.4
4 128 Vialle, Tom FRA FFM KTM 29:28.666 14 0:20.299 0:03.921 1:56.279 2 53.5
5 225 Strubhart Moreau, Brian FRA FFM Kawasaki 29:29.740 14 0:21.373 0:01.074 1:56.648 3 53.3
6 24 Horgmo, Kevin NOR NMF KTM 29:30.123 14 0:21.756 0:00.383 1:56.504 2 53.4
7 53 Walsh, Dylan NZL MNZ Husqvarna 29:34.779 14 0:26.412 0:04.656 1:57.022 3 53.2
8 511 Clarke, Steven GBR ACU Honda 29:35.551 14 0:27.184 0:00.772 1:57.125 5 53.1
9 119 Pocock, Mel GBR ACU Husqvarna 29:35.842 14 0:27.475 0:00.291 1:56.376 5 53.5
10 637 Sileika, Tomass LAT LAMSF KTM 29:37.542 14 0:29.175 0:01.700 1:57.190 3 53.1
11 41 Grothues, Caleb AUS MA Husqvarna 29:38.304 14 0:29.937 0:00.762 1:56.863 4 53.2
12 959 Renaux, Maxime FRA FFM Yamaha 29:39.103 14 0:30.736 0:00.799 1:57.406 7 53
13 39 Van De Moosdijk, Roan NED KNMV Yamaha 29:44.155 14 0:35.788 0:05.052 1:56.720 2 53.3
14 472 Meier, Glen DEN DMU KTM 29:47.198 14 0:38.831 0:03.043 1:56.874 5 53.2
15 2 Dunn, James GBR ACU KTM 29:53.163 14 0:44.796 0:05.965 1:57.317 5 53
16 37 Quarti, Yuri ITA FMI KTM 29:54.934 14 0:46.567 0:01.771 1:58.075 4 52.7
17 403 Boegh Damm, Bastian DEN DMU Kawasaki 29:55.313 14 0:46.946 0:00.379 1:57.999 2 52.7
18 180 Spinks, Josh GBR ACU KTM 29:57.736 14 0:49.369 0:02.423 1:57.795 4 52.8
19 172 Boisrame, Mathys FRA FFM Honda 30:00.568 14 0:52.201 0:02.832 1:58.065 6 52.7
20 124 Ubach, Simeo ESP RFME KTM 30:06.379 14 0:58.012 0:05.811 1:58.619 6 52.5
21 51 Malaval, Adrien FRA FFM Husqvarna 30:07.909 14 0:59.542 0:01.530 1:58.873 8 52.3
22 211 Lapucci, Nicholas ITA FMI Yamaha 30:09.669 14 1:01.302 0:01.760 1:58.317 9 52.6
23 3 Cislaghi, Davide ITA FMI KTM 30:11.243 14 1:02.876 0:01.574 1:58.586 6 52.5
24 282 Kahrle, Hampus SWE SVEMO KTM 30:12.199 14 1:03.832 0:00.956 1:59.486 7 52.1
25 113 Wahl, Henrik NOR NMF KTM 30:12.459 14 1:04.092 0:00.260 1:58.749 10 52.4
26 48 Edberg, Tim SWE SVEMO Yamaha 30:13.471 14 1:05.104 0:01.012 1:59.244 8 52.2
27 766 Sandner, Michael AUT AMF KTM 30:16.056 14 1:07.689 0:02.585 1:59.303 3 52.2
28 104 Sydow, Jeremy GER DMSB KTM 30:26.919 14 1:18.552 0:10.863 1:58.740 1 52.4
29 134 Knight, Liam GBR ACU KTM 30:32.447 14 1:24.080 0:05.528 2:00.665 7 51.6
30 129 Ravera, Lorenzo ITA FMI KTM 30:41.548 14 1:33.181 0:09.101 2:00.176 6 51.8
31 13 Villanueva, Mahy ESP FMI KTM 30:42.600 14 1:34.233 0:01.052 1:59.988 4 51.9
32 8 Kratzer, Michael AUT AMF Kawasaki 30:42.690 14 1:34.323 0:00.090 2:01.421 4 51.2
33 517 Gifting, Isak SWE SVEMO KTM 30:47.601 14 1:39.234 0:04.911 1:57.466 8 53
34 350 Lugana, Paolo ITA FMI Yamaha 30:54.033 14 1:45.666 0:06.432 2:01.822 4 51.1
35 43 Bres, Natanael FRA FFM KTM 31:02.212 14 1:53.845 0:08.179 1:58.283 4 52.6
36 132 Kutsar, Karel EST EMF KTM 29:13.642 13 1 lap 1 lap 1:55.717 3 53.8
37 22 Facchetti, Gianluca ITA FMI KTM 26:31.662 11 3 laps 2 laps 1:56.560 1 53.4
38 945 Bourdon, Anthony FRA FFM Husqvarna 18:38.571 8 6 laps 3 laps 1:59.525 3 52.1
39 377 Bjerregaard, Nichlas DEN DMU Yamaha 9:55.490 4 10 laps 4 laps 1:56.883 1 53.2

Source: MXGP